Hauptseite
METAR-TAF:

METAR-TAF

Flughäfen :

Heeresflugplatz Celle

Celle, Deutschland

Breite: 52-36N, Länge: 010-01E, Höhe: 39 m

Beobachtung

Neuester Wetterbericht von vor 45 Minuten, um 15:20 UTC
Wind 3 kt aus Ost
Temperatur 28°C
Luftfeuchtigkeit 27%
Luftdruck 1024 hPa
Sichtweite 10 km oder mehr

METAR: ETHC 231520Z AUTO 09003KT 9999 // ////// 28/07 Q1024 ///

Zeit: 18:05 (16:05 UTC)

Prognose

Neuester Wetterbericht von vor 6 Stunden und 15 Minuten, um 09:50 UTC
Gültige Prognose vom 23 um 08 UTC bis 23 um 17 UTC
Wind 5 kt aus West/Südwest
Sichtweite: 1020 m
Aufgelockert bewölkt in der Höhe von 30000 ft

TAF: ETHC 230950Z 2308/2317 25005KT 9999 NSW SCT300 CANCEL 1020

Wetterbeobachtungen und Prognosen von mehr als 4000 Flughäfen (METAR und TAF Bericht).

Die verfügbaren Stationen werden durch gelbe und rote Markierungen auf der Karte dargestellt.

Führen Sie die Maus auf sie, um den Namen der Station zu sehen.

Darauf klicken, um die Beobachtung von Wetterbeobachtungen und Prognosen zu sehen.

Um die Karte zu ändern : klicken Sie auf den grünen Tasten mit einem schwarzen Kreuz Zum Vergrößern, auf den grünen Button mit einem Gedankenstrich zu verkleinern, oder auf die grünen Pfeile für benachbarte Karten.


METAR-TAF: